createdAt,value
2022-09-23T00:00:15.366Z,21.5
2022-09-23T00:01:17.398Z,21.4
2022-09-23T00:02:20.301Z,21.5
2022-09-23T00:03:22.459Z,21.4
2022-09-23T00:04:24.654Z,21.4
2022-09-23T00:05:26.845Z,21.5
2022-09-23T00:06:29.050Z,21.6
2022-09-23T00:07:30.968Z,21.5
2022-09-23T00:08:33.439Z,21.5
2022-09-23T00:09:35.635Z,21.5
2022-09-23T00:10:37.836Z,21.5
2022-09-23T00:11:40.362Z,21.5
2022-09-23T00:12:42.941Z,21.5
2022-09-23T00:13:45.438Z,21.5
2022-09-23T00:14:47.907Z,21.5
2022-09-23T00:15:50.211Z,21.4
2022-09-23T00:16:52.577Z,21.5
2022-09-23T00:17:55.496Z,21.5
2022-09-23T00:18:57.979Z,21.6
2022-09-23T00:20:00.190Z,21.5
2022-09-23T00:21:02.397Z,21.6
2022-09-23T00:22:04.299Z,21.5
2022-09-23T00:23:06.893Z,21.6
2022-09-23T00:24:09.853Z,21.6
2022-09-23T00:25:12.074Z,21.5
2022-09-23T00:26:14.537Z,21.6
2022-09-23T00:27:16.792Z,21.6
2022-09-23T00:28:19.310Z,21.5
2022-09-23T00:29:21.807Z,21.6
2022-09-23T00:30:24.204Z,21.5
2022-09-23T00:31:26.607Z,21.5
2022-09-23T00:32:28.308Z,21.5
2022-09-23T00:33:30.782Z,21.6
2022-09-23T00:34:33.251Z,21.5
2022-09-23T00:35:35.740Z,21.5
2022-09-23T00:36:37.985Z,21.5
2022-09-23T00:37:40.466Z,21.5
2022-09-23T00:38:42.934Z,21.5
2022-09-23T00:39:45.146Z,21.7
2022-09-23T00:40:47.824Z,21.6
2022-09-23T00:41:50.373Z,21.6
2022-09-23T00:42:52.729Z,21.6
2022-09-23T00:43:55.246Z,21.7
2022-09-23T00:44:57.481Z,21.6
2022-09-23T00:46:00.146Z,21.6
2022-09-23T00:47:02.095Z,21.7
2022-09-23T00:48:04.060Z,21.6
2022-09-23T00:49:06.266Z,21.6
2022-09-23T00:50:08.499Z,21.6
2022-09-23T00:51:10.739Z,21.6
2022-09-23T00:52:13.234Z,21.6
2022-09-23T00:53:15.711Z,21.6
2022-09-23T00:54:17.627Z,21.6
2022-09-23T00:55:19.828Z,21.6
2022-09-23T00:56:22.055Z,21.7
2022-09-23T00:57:24.254Z,21.6
2022-09-23T00:58:26.212Z,21.7
2022-09-23T00:59:28.715Z,21.6
2022-09-23T01:00:31.296Z,21.7
2022-09-23T01:01:33.967Z,21.6
2022-09-23T01:02:36.550Z,21.7
2022-09-23T01:03:39.447Z,21.6
2022-09-23T01:04:41.909Z,21.7
2022-09-23T01:05:44.379Z,21.6
2022-09-23T01:06:46.847Z,21.6
2022-09-23T01:07:49.032Z,21.7
2022-09-23T01:08:51.508Z,21.7
2022-09-23T01:09:53.995Z,21.7
2022-09-23T01:10:56.469Z,21.7
2022-09-23T01:11:58.683Z,21.6
2022-09-23T01:13:01.153Z,21.7
2022-09-23T01:14:03.652Z,21.7
2022-09-23T01:15:06.224Z,21.7
2022-09-23T01:16:08.761Z,21.7
2022-09-23T01:17:11.516Z,21.6
2022-09-23T01:18:14.003Z,21.7
2022-09-23T01:19:16.476Z,21.7
2022-09-23T01:20:18.663Z,21.7
2022-09-23T01:21:20.846Z,21.6
2022-09-23T01:22:23.045Z,21.7
2022-09-23T01:23:24.980Z,21.7
2022-09-23T01:24:27.193Z,21.6
2022-09-23T01:25:29.671Z,21.7
2022-09-23T01:26:32.142Z,21.7
2022-09-23T01:27:34.340Z,21.7
2022-09-23T01:28:36.270Z,21.7
2022-09-23T01:29:38.465Z,21.7
2022-09-23T01:30:41.076Z,21.7
2022-09-23T01:31:43.782Z,21.7
2022-09-23T01:32:46.262Z,21.7
2022-09-23T01:33:48.739Z,21.8
2022-09-23T01:34:50.966Z,21.7
2022-09-23T01:35:53.139Z,21.7
2022-09-23T01:36:55.338Z,21.7
2022-09-23T01:37:57.821Z,21.7
2022-09-23T01:39:01.261Z,21.7
2022-09-23T01:40:03.740Z,21.7
2022-09-23T01:41:06.157Z,21.9
2022-09-23T01:42:08.703Z,21.7
2022-09-23T01:43:10.914Z,21.7
2022-09-23T01:44:13.388Z,21.7
2022-09-23T01:45:15.878Z,21.7
2022-09-23T01:46:18.117Z,21.7
2022-09-23T01:47:20.674Z,21.7
2022-09-23T01:48:23.247Z,21.8
2022-09-23T01:49:25.729Z,21.8
2022-09-23T01:50:28.208Z,21.8
2022-09-23T01:51:30.396Z,21.7
2022-09-23T01:52:32.596Z,21.8
2022-09-23T01:53:34.790Z,21.8
2022-09-23T01:54:36.707Z,21.8
2022-09-23T01:55:39.177Z,21.7
2022-09-23T01:56:41.653Z,21.8
2022-09-23T01:57:44.116Z,21.8
2022-09-23T01:58:46.606Z,21.7
2022-09-23T01:59:49.089Z,21.7
2022-09-23T02:00:51.472Z,21.8
2022-09-23T02:01:54.076Z,21.8
2022-09-23T02:02:56.566Z,21.8
2022-09-23T02:03:58.819Z,21.7
2022-09-23T02:05:01.284Z,21.8
2022-09-23T02:06:03.211Z,21.8
2022-09-23T02:07:05.683Z,21.7
2022-09-23T02:08:07.589Z,21.7
2022-09-23T02:09:09.936Z,21.8
2022-09-23T02:10:11.834Z,21.7
2022-09-23T02:11:14.045Z,21.8
2022-09-23T02:12:16.250Z,21.6
2022-09-23T02:13:18.448Z,21.7
2022-09-23T02:14:20.941Z,21.8
2022-09-23T02:15:23.141Z,21.8
2022-09-23T02:16:25.493Z,21.8
2022-09-23T02:17:28.369Z,21.8
2022-09-23T02:18:30.550Z,21.8
2022-09-23T02:19:33.040Z,21.7
2022-09-23T02:20:35.508Z,21.7
2022-09-23T02:21:37.989Z,21.8
2022-09-23T02:22:40.174Z,21.8
2022-09-23T02:23:42.672Z,21.6
2022-09-23T02:24:44.864Z,21.7
2022-09-23T02:25:47.066Z,21.9
2022-09-23T02:26:49.535Z,21.7
2022-09-23T02:27:52.009Z,21.7
2022-09-23T02:28:54.514Z,21.8
2022-09-23T02:29:57.003Z,21.7
2022-09-23T02:30:59.477Z,21.8
2022-09-23T02:32:02.124Z,21.9
2022-09-23T02:33:05.022Z,21.9
2022-09-23T02:34:07.510Z,21.7
2022-09-23T02:35:09.812Z,21.8
2022-09-23T02:36:12.283Z,21.8
2022-09-23T02:37:14.756Z,21.8
2022-09-23T02:38:16.963Z,21.8
2022-09-23T02:39:18.904Z,21.9
2022-09-23T02:40:21.508Z,21.8
2022-09-23T02:41:24.254Z,21.8
2022-09-23T02:42:26.441Z,21.8
2022-09-23T02:43:28.918Z,21.8
2022-09-23T02:44:31.382Z,21.8
2022-09-23T02:45:33.789Z,21.9
2022-09-23T02:46:36.295Z,21.9
2022-09-23T02:47:38.799Z,21.9
2022-09-23T02:48:41.336Z,21.8
2022-09-23T02:49:43.828Z,21.8
2022-09-23T02:50:46.026Z,21.8
2022-09-23T02:51:48.249Z,21.9
2022-09-23T02:52:50.723Z,21.9
2022-09-23T02:53:53.197Z,21.8
2022-09-23T02:54:55.670Z,21.9
2022-09-23T02:55:58.154Z,21.8
2022-09-23T02:57:00.077Z,21.9
2022-09-23T02:58:02.285Z,21.9
2022-09-23T02:59:04.203Z,21.9
2022-09-23T03:00:06.398Z,21.9
2022-09-23T03:01:09.052Z,21.9
2022-09-23T03:02:11.626Z,21.8
2022-09-23T03:03:14.059Z,21.9
2022-09-23T03:04:16.289Z,21.9
2022-09-23T03:05:18.826Z,21.7
2022-09-23T03:06:21.299Z,21.8
2022-09-23T03:07:23.778Z,21.8
2022-09-23T03:08:25.975Z,21.8
2022-09-23T03:09:27.878Z,21.7
2022-09-23T03:10:30.359Z,21.7
2022-09-23T03:11:32.555Z,21.7
2022-09-23T03:12:34.469Z,21.6
2022-09-23T03:13:36.964Z,21.6
2022-09-23T03:14:39.450Z,21.7
2022-09-23T03:15:41.915Z,21.6
2022-09-23T03:16:44.672Z,21.7
2022-09-23T03:17:47.305Z,21.6
2022-09-23T03:18:49.799Z,21.6
2022-09-23T03:19:52.298Z,21.6
2022-09-23T03:20:54.797Z,21.6
2022-09-23T03:21:57.272Z,21.5
2022-09-23T03:22:59.735Z,21.5
2022-09-23T03:24:02.346Z,21.6
2022-09-23T03:25:04.843Z,21.6
2022-09-23T03:26:06.493Z,21.6
2022-09-23T03:27:08.686Z,21.5
2022-09-23T03:28:11.166Z,21.6
2022-09-23T03:29:13.629Z,21.6
2022-09-23T03:30:15.827Z,21.5
2022-09-23T03:31:18.487Z,21.6
2022-09-23T03:32:21.262Z,21.5
2022-09-23T03:34:28.292Z,21.6
2022-09-23T03:35:30.798Z,21.4
2022-09-23T03:36:33.283Z,21.4
2022-09-23T03:37:35.499Z,21.4
2022-09-23T03:38:37.417Z,21.5
2022-09-23T03:39:39.899Z,21.4
2022-09-23T03:40:41.954Z,21.3
2022-09-23T03:41:44.745Z,21.4
2022-09-23T03:42:46.640Z,21.5
2022-09-23T03:43:49.113Z,21.5
2022-09-23T03:44:51.848Z,21.4
2022-09-23T03:45:54.540Z,21.4
2022-09-23T03:46:57.286Z,21.4
2022-09-23T03:47:59.519Z,21.5
2022-09-23T03:49:01.982Z,21.5
2022-09-23T03:50:03.937Z,21.4
2022-09-23T03:51:06.441Z,21.4
2022-09-23T03:52:08.936Z,21.3
2022-09-23T03:53:11.407Z,21.4
2022-09-23T03:54:13.883Z,21.4
2022-09-23T03:55:16.353Z,21.3
2022-09-23T03:56:18.837Z,21.4
2022-09-23T03:57:21.303Z,21.3
2022-09-23T03:58:23.485Z,21.3
2022-09-23T03:59:25.974Z,21.5
2022-09-23T04:00:28.467Z,21.4
2022-09-23T04:01:30.767Z,21.4
2022-09-23T04:02:32.831Z,21.4
2022-09-23T04:03:35.782Z,21.3
2022-09-23T04:04:38.003Z,21.4
2022-09-23T04:05:40.545Z,21.4
2022-09-23T04:06:42.808Z,21.3
2022-09-23T04:07:45.291Z,21.6
2022-09-23T04:08:47.511Z,21.5
2022-09-23T04:09:49.715Z,21.3
2022-09-23T04:11:56.904Z,21.3
2022-09-23T04:12:59.399Z,21.3
2022-09-23T04:14:01.604Z,21.4
2022-09-23T04:15:03.811Z,21.3
2022-09-23T04:16:06.071Z,21.3
2022-09-23T04:17:08.615Z,21.3
2022-09-23T04:18:11.079Z,21.3
2022-09-23T04:19:13.901Z,21.2
2022-09-23T04:20:16.430Z,21.3
2022-09-23T04:21:18.366Z,21.3
2022-09-23T04:22:20.868Z,21.3
2022-09-23T04:23:23.360Z,21.3
2022-09-23T04:24:25.839Z,21.3
2022-09-23T04:25:28.046Z,21.3
2022-09-23T04:26:30.536Z,21.3
2022-09-23T04:28:37.445Z,21.3
2022-09-23T04:29:39.920Z,21.4
2022-09-23T04:30:41.854Z,21.3
2022-09-23T04:31:44.408Z,21.3
2022-09-23T04:32:47.199Z,21.2
2022-09-23T04:33:49.670Z,21.3
2022-09-23T04:34:52.175Z,21.3
2022-09-23T04:35:54.364Z,21.2
2022-09-23T04:36:56.866Z,21.3
2022-09-23T04:37:59.382Z,21.3
2022-09-23T04:39:01.598Z,21.3
2022-09-23T04:40:04.520Z,21.2
2022-09-23T04:41:07.261Z,21.3
2022-09-23T04:42:09.748Z,21.2
2022-09-23T04:43:14.109Z,21.2
2022-09-23T04:44:16.582Z,21.3
2022-09-23T04:45:18.880Z,21.2
2022-09-23T04:46:21.557Z,21.3
2022-09-23T04:47:24.308Z,21.2
2022-09-23T04:48:26.836Z,21.2
2022-09-23T04:49:28.743Z,21.3
2022-09-23T04:50:31.246Z,21.3
2022-09-23T04:51:33.721Z,21.2
2022-09-23T04:52:35.947Z,21.3
2022-09-23T04:53:38.469Z,21.2
2022-09-23T04:54:40.966Z,21.3
2022-09-23T04:55:43.438Z,21.3
2022-09-23T04:56:45.916Z,21.1
2022-09-23T04:57:47.835Z,21.3
2022-09-23T04:58:50.031Z,21.3
2022-09-23T04:59:52.501Z,21.3
2022-09-23T05:00:54.788Z,21.3
2022-09-23T05:02:02.145Z,21.3
2022-09-23T05:03:04.318Z,21.2
2022-09-23T05:04:06.541Z,21.2
2022-09-23T05:05:09.022Z,21.2
2022-09-23T05:06:11.234Z,21.2
2022-09-23T05:07:13.420Z,21.1
2022-09-23T05:08:15.967Z,21.2
2022-09-23T05:09:18.476Z,21.3
2022-09-23T05:10:20.688Z,21.2
2022-09-23T05:11:22.888Z,21.3
2022-09-23T05:12:25.077Z,21.3
2022-09-23T05:13:27.565Z,21.2
2022-09-23T05:14:30.028Z,21.2
2022-09-23T05:15:32.507Z,21.2
2022-09-23T05:16:34.871Z,21.2
2022-09-23T05:17:37.285Z,21.3
2022-09-23T05:18:39.823Z,21.2
2022-09-23T05:19:42.432Z,21.2
2022-09-23T05:20:44.784Z,21.2
2022-09-23T05:21:47.276Z,21.2
2022-09-23T05:22:49.497Z,21.2
2022-09-23T05:23:52.075Z,21.1
2022-09-23T05:24:54.581Z,21.2
2022-09-23T05:25:57.084Z,21.1
2022-09-23T05:26:59.251Z,21.1
2022-09-23T05:28:01.722Z,21.2
2022-09-23T05:29:04.012Z,21.2
2022-09-23T05:30:06.621Z,21.2
2022-09-23T05:31:08.862Z,21.2
2022-09-23T05:32:11.009Z,21.2
2022-09-23T05:33:13.510Z,21.1
2022-09-23T05:34:15.720Z,21.2
2022-09-23T05:35:18.003Z,21.2
2022-09-23T05:36:20.196Z,21.3
2022-09-23T05:37:22.676Z,21.2
2022-09-23T05:38:25.161Z,21.2
2022-09-23T05:39:27.441Z,21.2
2022-09-23T05:40:30.095Z,21.2
2022-09-23T05:41:32.900Z,21.2
2022-09-23T05:42:35.494Z,21.1
2022-09-23T05:43:37.968Z,21.1
2022-09-23T05:44:40.161Z,21.3
2022-09-23T05:45:42.629Z,21.1
2022-09-23T05:46:45.265Z,21.1
2022-09-23T05:47:47.749Z,21.2
2022-09-23T05:48:50.249Z,21.2
2022-09-23T05:50:57.728Z,21.1
2022-09-23T05:51:59.939Z,21.2
2022-09-23T05:53:02.224Z,21.2
2022-09-23T05:55:09.436Z,21.2
2022-09-23T05:56:11.955Z,21.2
2022-09-23T05:57:14.494Z,21.1
2022-09-23T05:58:16.439Z,21.2
2022-09-23T05:59:18.643Z,21.1
2022-09-23T06:00:20.854Z,21.2
2022-09-23T06:01:23.140Z,21.2
2022-09-23T06:02:25.109Z,21.1
2022-09-23T06:03:27.501Z,21.2
2022-09-23T06:04:30.288Z,21.3
2022-09-23T06:05:32.752Z,21.2
2022-09-23T06:06:35.235Z,21.2
2022-09-23T06:07:37.431Z,21.1
2022-09-23T06:08:39.956Z,21.2
2022-09-23T06:09:42.178Z,21.2
2022-09-23T06:10:44.683Z,21.2
2022-09-23T06:11:48.905Z,21.1
2022-09-23T06:12:51.392Z,21.2
2022-09-23T06:13:53.600Z,21.2
2022-09-23T06:14:56.116Z,21.1
2022-09-23T06:15:58.514Z,21.1
2022-09-23T06:17:01.374Z,21.2
2022-09-23T06:18:03.555Z,21.1
2022-09-23T06:19:07.282Z,21.1
2022-09-23T06:20:09.543Z,21.1
2022-09-23T06:21:11.750Z,21.2
2022-09-23T06:22:14.230Z,21.2
2022-09-23T06:23:16.147Z,21.1
2022-09-23T06:25:23.357Z,21.2
2022-09-23T06:26:25.873Z,21.1
2022-09-23T06:27:28.387Z,21.1
2022-09-23T06:28:30.343Z,21.1
2022-09-23T06:29:32.916Z,21.2
2022-09-23T06:30:35.130Z,21.2
2022-09-23T06:31:37.527Z,21.1
2022-09-23T06:32:40.318Z,21.1
2022-09-23T06:33:42.787Z,21.1
2022-09-23T06:36:55.471Z,21.3
2022-09-23T06:37:58.080Z,21.1
2022-09-23T06:39:00.338Z,21.1
2022-09-23T06:40:02.840Z,21.3
2022-09-23T06:41:05.400Z,21.1
2022-09-23T06:42:07.714Z,21.1
2022-09-23T06:43:10.218Z,21.1
2022-09-23T06:44:12.457Z,21.1
2022-09-23T06:45:14.690Z,21.2
2022-09-23T06:46:16.950Z,21.2
2022-09-23T06:47:19.345Z,21.2
2022-09-23T06:48:21.858Z,21.1
2022-09-23T06:49:24.318Z,21.1
2022-09-23T06:50:26.342Z,21.2
2022-09-23T06:51:28.826Z,21.1
2022-09-23T06:52:31.050Z,21.1
2022-09-23T06:53:33.249Z,21.1
2022-09-23T06:54:35.436Z,21.2
2022-09-23T06:55:37.927Z,21.2
2022-09-23T06:56:40.511Z,21.1
2022-09-23T06:57:42.469Z,21
2022-09-23T06:58:44.723Z,21.1
2022-09-23T06:59:46.676Z,21.1
2022-09-23T07:00:49.155Z,21.1
2022-09-23T07:01:51.686Z,21.2
2022-09-23T07:02:54.259Z,21.2
2022-09-23T07:03:56.804Z,21.1
2022-09-23T07:04:59.047Z,21.1
2022-09-23T07:06:01.249Z,21.1
2022-09-23T07:07:03.747Z,21.2
2022-09-23T07:08:06.230Z,21.1
2022-09-23T07:09:09.132Z,21.2
2022-09-23T07:10:11.542Z,21.1
2022-09-23T07:11:14.134Z,21.2
2022-09-23T07:12:16.327Z,21
2022-09-23T07:13:18.621Z,21.1
2022-09-23T07:14:21.125Z,21.1
2022-09-23T07:15:23.479Z,21
2022-09-23T07:16:26.179Z,21.2
2022-09-23T07:17:28.433Z,21
2022-09-23T07:19:35.627Z,21.1
2022-09-23T07:20:38.135Z,21.1
2022-09-23T07:21:40.619Z,21.1
2022-09-23T07:22:43.094Z,21.1
2022-09-23T07:23:45.288Z,21.1
2022-09-23T07:24:47.765Z,21.1
2022-09-23T07:25:50.244Z,21.1
2022-09-23T07:26:52.488Z,21
2022-09-23T07:27:54.949Z,21.1
2022-09-23T07:28:57.630Z,21.1
2022-09-23T07:30:00.185Z,21.2
2022-09-23T07:31:03.094Z,21.1
2022-09-23T07:34:15.591Z,21
2022-09-23T07:35:17.802Z,21.1
2022-09-23T07:36:19.719Z,21.1
2022-09-23T07:37:21.895Z,21.1
2022-09-23T07:38:24.067Z,21.1
2022-09-23T07:39:26.272Z,21.2
2022-09-23T07:40:28.318Z,21.1
2022-09-23T07:41:30.547Z,21.1
2022-09-23T07:42:33.047Z,21.1
2022-09-23T07:43:35.524Z,21.1
2022-09-23T07:44:37.757Z,21.1
2022-09-23T07:45:40.047Z,21.1
2022-09-23T07:46:42.682Z,21
2022-09-23T07:47:45.132Z,21.1
2022-09-23T07:48:47.339Z,21
2022-09-23T07:49:49.820Z,21.1
2022-09-23T07:50:52.288Z,21
2022-09-23T07:51:54.469Z,21
2022-09-23T07:52:55.828Z,21
2022-09-23T07:53:58.322Z,21.2
2022-09-23T07:55:00.511Z,21
2022-09-23T07:56:03.005Z,21.1
2022-09-23T07:57:05.202Z,21.1
2022-09-23T07:58:07.532Z,21.1
2022-09-23T07:59:09.591Z,21.1
2022-09-23T08:00:12.102Z,21.1
2022-09-23T08:01:14.479Z,21.2
2022-09-23T08:02:17.510Z,21.1
2022-09-23T08:03:19.722Z,21.1
2022-09-23T08:04:22.251Z,21.1
2022-09-23T08:05:24.464Z,21
2022-09-23T08:06:26.909Z,21.1
2022-09-23T08:07:29.121Z,21
2022-09-23T08:08:31.594Z,21.1
2022-09-23T08:09:33.509Z,21.1
2022-09-23T08:10:35.727Z,21.1
2022-09-23T08:11:38.213Z,21.1
2022-09-23T08:12:40.146Z,21
2022-09-23T08:13:42.643Z,21.1
2022-09-23T08:14:44.856Z,21
2022-09-23T08:15:49.119Z,21.1
2022-09-23T08:16:52.945Z,21.1
2022-09-23T08:17:55.529Z,21.1
2022-09-23T08:18:57.568Z,21
2022-09-23T08:20:00.281Z,21.2
2022-09-23T08:21:02.505Z,21.1
2022-09-23T08:22:04.417Z,21
2022-09-23T08:23:06.891Z,21
2022-09-23T08:24:09.420Z,21.1
2022-09-23T08:25:11.789Z,21
2022-09-23T08:27:19.008Z,21
2022-09-23T08:28:21.213Z,21
2022-09-23T08:29:23.406Z,21
2022-09-23T08:30:25.881Z,21.2
2022-09-23T08:31:28.700Z,21
2022-09-23T08:32:31.334Z,21
2022-09-23T08:33:33.604Z,21.1
2022-09-23T08:34:36.083Z,21.1
2022-09-23T08:35:38.573Z,21
2022-09-23T08:36:40.792Z,21
2022-09-23T08:37:43.296Z,21.2
2022-09-23T08:38:45.524Z,21
2022-09-23T08:39:47.995Z,20.9
2022-09-23T08:40:50.505Z,21
2022-09-23T08:42:57.424Z,21.1
2022-09-23T08:43:59.500Z,21
2022-09-23T08:45:01.839Z,21.1
2022-09-23T08:46:04.099Z,21
2022-09-23T08:47:06.496Z,21.1
2022-09-23T08:49:13.718Z,21
2022-09-23T08:50:16.661Z,21.1
2022-09-23T08:51:18.880Z,21
2022-09-23T08:52:21.365Z,21.1
2022-09-23T08:53:23.559Z,21
2022-09-23T08:54:26.036Z,21.1
2022-09-23T08:55:28.235Z,21
2022-09-23T08:56:30.441Z,20.9
2022-09-23T08:57:32.630Z,21
2022-09-23T08:58:35.119Z,21
2022-09-23T08:59:37.629Z,21
2022-09-23T09:00:39.859Z,21.1
2022-09-23T09:01:41.654Z,21.1
2022-09-23T09:02:44.190Z,21
2022-09-23T09:03:46.862Z,21.1
2022-09-23T09:04:49.362Z,21.1
2022-09-23T09:08:01.301Z,21
2022-09-23T09:09:03.688Z,20.9
2022-09-23T09:10:06.169Z,21
2022-09-23T09:11:08.654Z,21
2022-09-23T09:12:11.123Z,21
2022-09-23T09:13:13.600Z,21.1
2022-09-23T09:14:15.787Z,21
2022-09-23T09:15:18.290Z,21.1
2022-09-23T09:17:25.495Z,21
2022-09-23T09:18:32.525Z,21
2022-09-23T09:19:34.732Z,21
2022-09-23T09:20:37.226Z,21
2022-09-23T09:21:39.759Z,21
2022-09-23T09:22:42.241Z,21.1
2022-09-23T09:23:44.170Z,21
2022-09-23T09:24:46.644Z,20.9
2022-09-23T09:25:48.847Z,20.9
2022-09-23T09:26:50.777Z,21
2022-09-23T09:27:52.698Z,21
2022-09-23T09:29:59.888Z,21
2022-09-23T09:31:01.801Z,21
2022-09-23T09:32:04.350Z,21
2022-09-23T09:33:06.316Z,21.1
2022-09-23T09:34:08.856Z,21
2022-09-23T09:35:11.328Z,21.1
2022-09-23T09:36:13.917Z,21.1
2022-09-23T09:37:16.453Z,21
2022-09-23T09:38:18.617Z,21
2022-09-23T09:40:25.923Z,21.2
2022-09-23T09:41:27.916Z,21.1
2022-09-23T09:42:30.080Z,21.1
2022-09-23T09:43:33.036Z,20.9
2022-09-23T09:44:37.745Z,21.1
2022-09-23T09:45:40.214Z,21.1
2022-09-23T09:46:42.770Z,21.1
2022-09-23T09:47:45.356Z,20.9
2022-09-23T09:48:50.174Z,21
2022-09-23T09:49:52.505Z,21.1
2022-09-23T09:50:54.975Z,21
2022-09-23T09:51:57.526Z,21.1
2022-09-23T09:52:59.987Z,21.1
2022-09-23T09:54:02.188Z,21
2022-09-23T09:55:04.155Z,21
2022-09-23T09:56:06.678Z,21
2022-09-23T09:57:08.623Z,21
2022-09-23T09:58:10.600Z,21.1
2022-09-23T09:59:12.802Z,21
2022-09-23T10:00:15.004Z,21
2022-09-23T10:01:17.561Z,21
2022-09-23T10:02:19.959Z,21
2022-09-23T10:03:22.176Z,21
2022-09-23T10:04:24.795Z,21
2022-09-23T10:05:27.229Z,21
2022-09-23T10:06:29.424Z,21.1
2022-09-23T10:07:31.617Z,21
2022-09-23T10:08:34.136Z,21
2022-09-23T10:09:36.629Z,20.9
2022-09-23T10:10:38.553Z,21
2022-09-23T10:11:41.034Z,20.9
2022-09-23T10:12:43.754Z,21
2022-09-23T10:13:45.672Z,21.1
2022-09-23T10:14:47.876Z,20.9
2022-09-23T10:15:50.362Z,21.1
2022-09-23T10:16:52.686Z,21
2022-09-23T10:17:55.343Z,21
2022-09-23T10:18:57.563Z,21.1
2022-09-23T10:20:00.062Z,21
2022-09-23T10:21:02.470Z,21.1
2022-09-23T10:22:04.956Z,21
2022-09-23T10:23:07.164Z,20.9
2022-09-23T10:24:09.486Z,21.1
2022-09-23T10:25:11.411Z,20.9
2022-09-23T10:26:13.662Z,21
2022-09-23T10:27:16.151Z,20.9
2022-09-23T10:28:18.052Z,21
2022-09-23T10:29:20.273Z,21
2022-09-23T10:30:22.745Z,20.9
2022-09-23T10:31:24.950Z,21
2022-09-23T10:32:27.167Z,21
2022-09-23T10:33:29.642Z,21
2022-09-23T10:34:31.856Z,20.9
2022-09-23T10:35:34.324Z,21.1
2022-09-23T10:36:36.273Z,21.1
2022-09-23T10:37:42.227Z,21.1
2022-09-23T10:38:44.733Z,21
2022-09-23T10:39:47.137Z,21
2022-09-23T10:40:49.988Z,21
2022-09-23T10:41:52.971Z,20.9
2022-09-23T10:42:54.906Z,21
2022-09-23T10:43:56.809Z,21
2022-09-23T10:44:59.027Z,21.1
2022-09-23T10:46:01.446Z,21
2022-09-23T10:47:04.110Z,21
2022-09-23T10:48:06.325Z,21.1
2022-09-23T10:49:08.814Z,21
2022-09-23T10:50:11.029Z,20.9
2022-09-23T10:51:13.389Z,20.9
2022-09-23T10:52:15.899Z,21
2022-09-23T10:53:18.110Z,21
2022-09-23T10:54:19.505Z,21
2022-09-23T10:55:22.053Z,21
2022-09-23T10:56:23.972Z,21
2022-09-23T10:57:26.175Z,21
2022-09-23T10:58:28.376Z,21
2022-09-23T10:59:30.561Z,21
2022-09-23T11:00:32.762Z,20.9
2022-09-23T11:01:35.029Z,21
2022-09-23T11:02:37.304Z,21
2022-09-23T11:03:39.809Z,21.1
2022-09-23T11:04:41.378Z,21
2022-09-23T11:05:44.161Z,20.9
2022-09-23T11:06:46.376Z,21
2022-09-23T11:07:48.876Z,21.1
2022-09-23T11:08:50.802Z,21
2022-09-23T11:09:53.041Z,21
2022-09-23T11:10:55.542Z,21
2022-09-23T11:11:58.045Z,21.1
2022-09-23T11:13:00.245Z,21
2022-09-23T11:14:02.451Z,21
2022-09-23T11:15:04.665Z,21
2022-09-23T11:16:06.579Z,20.9
2022-09-23T11:17:09.264Z,20.9
2022-09-23T11:18:12.053Z,21
2022-09-23T11:19:14.259Z,21
2022-09-23T11:20:16.736Z,20.9
2022-09-23T11:21:19.251Z,21
2022-09-23T11:22:21.777Z,21
2022-09-23T11:23:23.463Z,21
2022-09-23T11:24:25.934Z,21
2022-09-23T11:25:28.427Z,21.1
2022-09-23T11:27:35.929Z,21
2022-09-23T11:28:38.133Z,21
2022-09-23T11:29:40.606Z,21.1
2022-09-23T11:30:43.031Z,21
2022-09-23T11:31:45.989Z,21
2022-09-23T11:32:48.474Z,21
2022-09-23T11:33:50.731Z,21
2022-09-23T11:35:58.199Z,21.1
2022-09-23T11:37:00.727Z,21
2022-09-23T11:38:03.264Z,20.9
2022-09-23T11:39:05.484Z,21
2022-09-23T11:40:07.859Z,20.9
2022-09-23T11:41:10.533Z,21
2022-09-23T11:42:13.106Z,20.9
2022-09-23T11:43:15.596Z,21.1
2022-09-23T11:44:17.790Z,21.1
2022-09-23T11:45:20.292Z,21
2022-09-23T11:46:22.027Z,20.9
2022-09-23T11:47:24.526Z,21.1
2022-09-23T11:48:26.172Z,21.1
2022-09-23T11:49:28.400Z,21
2022-09-23T11:50:30.896Z,20.9
2022-09-23T11:51:33.106Z,21
2022-09-23T11:52:35.610Z,21
2022-09-23T11:53:38.099Z,21
2022-09-23T11:54:40.618Z,21
2022-09-23T11:56:49.722Z,21
2022-09-23T11:57:52.086Z,21
2022-09-23T11:59:59.272Z,21
2022-09-23T12:01:02.167Z,21
2022-09-23T12:03:08.982Z,21.2
2022-09-23T12:05:17.559Z,21.1
2022-09-23T12:06:20.403Z,21
2022-09-23T12:07:22.333Z,20.9
2022-09-23T12:08:24.573Z,20.9
2022-09-23T12:10:31.837Z,20.9
2022-09-23T12:11:34.100Z,21
2022-09-23T12:12:36.596Z,20.9
2022-09-23T12:13:39.245Z,21
2022-09-23T12:14:41.178Z,21
2022-09-23T12:15:43.677Z,21
2022-09-23T12:16:45.625Z,21
2022-09-23T12:17:48.392Z,21.1
2022-09-23T12:18:50.985Z,21.1
2022-09-23T12:19:52.906Z,21
2022-09-23T12:20:55.099Z,21
2022-09-23T12:21:57.578Z,21
2022-09-23T12:22:59.494Z,21
2022-09-23T12:24:01.717Z,21
2022-09-23T12:25:04.150Z,20.9
2022-09-23T12:26:06.392Z,21
2022-09-23T12:27:08.861Z,20.9
2022-09-23T12:28:11.068Z,21
2022-09-23T12:29:13.578Z,21
2022-09-23T12:30:15.517Z,21
2022-09-23T12:31:18.119Z,21
2022-09-23T12:32:20.846Z,21
2022-09-23T12:33:23.327Z,21
2022-09-23T12:34:25.554Z,20.9
2022-09-23T12:35:27.485Z,21
2022-09-23T12:36:29.699Z,21
2022-09-23T12:37:31.948Z,20.9
2022-09-23T12:38:34.436Z,21
2022-09-23T12:39:36.930Z,20.9
2022-09-23T12:40:39.206Z,21
2022-09-23T12:41:42.049Z,21
2022-09-23T12:42:44.528Z,21
2022-09-23T12:43:46.864Z,21
2022-09-23T12:44:49.247Z,21
2022-09-23T12:45:51.829Z,20.9
2022-09-23T12:46:53.933Z,21
2022-09-23T12:47:55.594Z,21
2022-09-23T12:48:57.932Z,21
2022-09-23T12:50:00.195Z,21.1
2022-09-23T12:51:02.406Z,21
2022-09-23T12:52:04.625Z,21
2022-09-23T12:53:06.578Z,21
2022-09-23T12:54:08.585Z,20.9
2022-09-23T12:55:10.662Z,21
2022-09-23T12:56:13.137Z,21
2022-09-23T12:57:15.694Z,21
2022-09-23T12:58:18.164Z,21
2022-09-23T12:59:20.360Z,21.1
2022-09-23T13:00:22.867Z,20.9
2022-09-23T13:01:25.760Z,20.9
2022-09-23T13:02:29.175Z,21.1
2022-09-23T13:03:31.726Z,21
2022-09-23T13:04:33.922Z,21
2022-09-23T13:05:35.976Z,20.9
2022-09-23T13:06:38.453Z,20.9
2022-09-23T13:07:40.094Z,20.9
2022-09-23T13:08:42.318Z,20.9
2022-09-23T13:09:44.235Z,20.9
2022-09-23T13:10:46.468Z,21
2022-09-23T13:11:48.933Z,21
2022-09-23T13:12:51.436Z,21
2022-09-23T13:13:53.624Z,21.1
2022-09-23T13:14:56.133Z,21.1
2022-09-23T13:15:58.646Z,21
2022-09-23T13:17:00.145Z,21
2022-09-23T13:18:02.519Z,21
2022-09-23T13:19:04.698Z,21
2022-09-23T13:20:06.922Z,21
2022-09-23T13:21:09.405Z,20.9
2022-09-23T13:22:11.396Z,21.1
2022-09-23T13:23:13.878Z,21.1
2022-09-23T13:24:15.807Z,20.9
2022-09-23T13:25:18.016Z,21
2022-09-23T13:26:20.485Z,21
2022-09-23T13:27:23.003Z,21
2022-09-23T13:28:25.503Z,21
2022-09-23T13:29:27.422Z,21
2022-09-23T13:30:29.650Z,20.9
2022-09-23T13:31:32.120Z,21.1
2022-09-23T13:32:35.066Z,21.1
2022-09-23T13:33:37.568Z,20.9
2022-09-23T13:34:39.499Z,20.9
2022-09-23T13:35:41.430Z,20.9
2022-09-23T13:36:43.327Z,21
2022-09-23T13:37:45.296Z,21.1
2022-09-23T13:38:47.543Z,21
2022-09-23T13:39:49.169Z,21
2022-09-23T13:40:51.812Z,20.9
2022-09-23T13:41:54.250Z,21.1
2022-09-23T13:42:56.721Z,21
2022-09-23T13:43:58.944Z,21
2022-09-23T13:45:01.785Z,21.1
2022-09-23T13:46:03.869Z,21.1
2022-09-23T13:47:06.144Z,21.1
2022-09-23T13:48:08.337Z,20.9
2022-09-23T13:49:10.819Z,21
2022-09-23T13:50:13.021Z,21
2022-09-23T13:51:15.213Z,21
2022-09-23T13:52:17.405Z,21
2022-09-23T13:53:19.610Z,21
2022-09-23T13:54:22.098Z,21.2
2022-09-23T13:55:24.570Z,21.1
2022-09-23T13:56:27.043Z,21
2022-09-23T13:57:29.550Z,21.1
2022-09-23T13:58:31.474Z,21
2022-09-23T13:59:33.975Z,21
2022-09-23T14:00:35.867Z,21
2022-09-23T14:01:38.483Z,21.1
2022-09-23T14:02:41.124Z,21
2022-09-23T14:03:43.974Z,21
2022-09-23T14:04:45.899Z,21.1
2022-09-23T14:05:47.830Z,21
2022-09-23T14:06:49.760Z,21.1
2022-09-23T14:07:51.720Z,21.2
2022-09-23T14:08:53.939Z,21
2022-09-23T14:09:56.471Z,21.1
2022-09-23T14:10:58.956Z,21
2022-09-23T14:12:01.447Z,21.1
2022-09-23T14:13:03.986Z,21.1
2022-09-23T14:14:06.022Z,21
2022-09-23T14:15:09.251Z,21.1
2022-09-23T14:16:11.908Z,21.1
2022-09-23T14:17:14.107Z,21
2022-09-23T14:18:16.360Z,20.9
2022-09-23T14:19:18.558Z,21
2022-09-23T14:20:21.102Z,21.1
2022-09-23T14:21:23.575Z,21
2022-09-23T14:22:26.078Z,21.1
2022-09-23T14:23:28.586Z,21
2022-09-23T14:24:31.081Z,21
2022-09-23T14:25:33.277Z,21
2022-09-23T14:26:35.204Z,21.1
2022-09-23T14:27:37.258Z,21
2022-09-23T14:28:39.775Z,21
2022-09-23T14:29:41.988Z,21
2022-09-23T14:30:44.559Z,21
2022-09-23T14:31:47.140Z,21.2
2022-09-23T14:32:49.913Z,21
2022-09-23T14:33:52.433Z,21.1